This is the latest recevied weather packets stored in our database for station/object K2ATL. If no packets are shown the sender has not sent any weather packets the latest 10 day(s).
| Time | Temp. | Humidity | Pressure | Rain* | Wind** | Luminosity | Snow |
|---|---|---|---|---|---|---|---|
| 1787788500 | 25.56° C | 67% | 1101.7 hPa | 0 mm | - | 6 W/m² | - |
| 1787788200 | 25.56° C | 69% | 1101.9 hPa | 0 mm | - | 8 W/m² | - |
| 1787787895 | 25.56° C | 68% | 1101.6 hPa | 0 mm | - | 12 W/m² | - |
| 1787787590 | 25.56° C | 69% | 1101.6 hPa | 0 mm | - | 16 W/m² | - |
| 1787787284 | 25.56° C | 69% | 1101.7 hPa | 0 mm | - | 19 W/m² | - |
| 1787786983 | 25.56° C | 70% | 1101.7 hPa | 0 mm | - | 23 W/m² | - |
| 1787786679 | 25.56° C | 72% | 1102.1 hPa | 0 mm | - | 27 W/m² | - |
| 1787786378 | 25.56° C | 70% | 1102.1 hPa | 0 mm | - | 33 W/m² | - |
| 1787786074 | 25.56° C | 69% | 1102 hPa | 0 mm | - | 36 W/m² | - |
| 1787785770 | 25.56° C | 70% | 1102.2 hPa | 0 mm | - | 39 W/m² | - |
| 1787785465 | 26.11° C | 69% | 1102.2 hPa | 0 mm | - | 43 W/m² | - |
| 1787785164 | 26.11° C | 69% | 1102.2 hPa | 0 mm | - | 47 W/m² | - |
| 1787784860 | 26.11° C | 68% | 1102.2 hPa | 0 mm | - | 50 W/m² | - |
| 1787784559 | 26.11° C | 68% | 1102.5 hPa | 0 mm | - | 55 W/m² | - |
| 1787784253 | 26.67° C | 66% | 1102.3 hPa | 0 mm | - | 59 W/m² | - |
| 1787783948 | 26.67° C | 65% | 1102.3 hPa | 0 mm | - | 65 W/m² | - |
| 1787783644 | 26.67° C | 65% | 1102.3 hPa | 0 mm | - | 72 W/m² | - |
| 1787783343 | 26.67° C | 63% | 1102.2 hPa | 0 mm | - | 80 W/m² | - |
| 1787783039 | 26.67° C | 63% | 1102.3 hPa | 0 mm | - | 87 W/m² | - |
| 1787782738 | 26.67° C | 66% | 1102.3 hPa | 0 mm | - | 90 W/m² | - |
| 1787782434 | 26.11° C | 66% | 1102.2 hPa | 0 mm | - | 93 W/m² | - |
| 1787782129 | 26.11° C | 68% | 1102.4 hPa | 0 mm | - | 101 W/m² | - |
| 1787781824 | 26.67° C | 67% | 1102.3 hPa | 0 mm | - | 113 W/m² | - |
| 1787781522 | 26.67° C | 65% | 1102.1 hPa | 0 mm | - | 131 W/m² | - |
| 1787781222 | 26.67° C | 65% | 1102.4 hPa | 0 mm | - | 157 W/m² | - |
* Rain latest hour (hover to see other rain measurements)
** Current wind speed in m/s (hover to see current wind gust speed)